createdAt,value
2023-05-19T00:01:13.817Z,100865.48
2023-05-19T00:03:49.338Z,100849.58
2023-05-19T00:06:16.404Z,100847.01
2023-05-19T00:08:43.732Z,100853.39
2023-05-19T00:11:10.946Z,100857.29
2023-05-19T00:13:38.211Z,100860.83
2023-05-19T00:16:06.282Z,100860.14
2023-05-19T00:18:33.586Z,100860.11
2023-05-19T00:21:01.424Z,100860.94
2023-05-19T00:23:28.476Z,100857.44
2023-05-19T00:25:55.549Z,100859.49
2023-05-19T00:28:22.569Z,100859.15
2023-05-19T00:30:50.815Z,100867.91
2023-05-19T00:33:17.892Z,100867.66
2023-05-19T00:35:44.990Z,100866.48
2023-05-19T00:38:11.969Z,100867.66
2023-05-19T00:40:39.049Z,100868.04
2023-05-19T00:43:06.133Z,100868.61
2023-05-19T00:45:33.289Z,100865.83
2023-05-19T00:48:00.459Z,100874.44
2023-05-19T00:50:28.500Z,100871.18
2023-05-19T00:52:56.079Z,100872.37
2023-05-19T00:55:23.603Z,100870.17
2023-05-19T00:57:51.073Z,100868.55
2023-05-19T01:00:18.456Z,100875.45
2023-05-19T01:02:45.528Z,100877.25
2023-05-19T01:05:13.049Z,100873.96
2023-05-19T01:07:41.736Z,100877.13
2023-05-19T01:10:09.103Z,100876.68
2023-05-19T01:12:36.286Z,100876.44
2023-05-19T01:15:04.032Z,100870.73
2023-05-19T01:17:50.073Z,100869.86
2023-05-19T01:20:19.916Z,100864.10
2023-05-19T01:22:50.071Z,100864.98
2023-05-19T01:25:18.069Z,100863.99
2023-05-19T01:27:51.475Z,100864.75
2023-05-19T01:30:18.859Z,100865.17
2023-05-19T01:32:46.083Z,100866.73
2023-05-19T01:35:13.333Z,100864.08
2023-05-19T01:37:40.600Z,100870.85
2023-05-19T01:40:10.625Z,100868.36
2023-05-19T01:42:40.120Z,100871.59
2023-05-19T01:45:10.550Z,100873.50
2023-05-19T01:47:42.153Z,100875.92
2023-05-19T01:50:09.730Z,100871.33
2023-05-19T01:52:36.932Z,100873.17
2023-05-19T01:55:04.387Z,100873.66
2023-05-19T01:57:32.548Z,100871.31
2023-05-19T02:00:08.060Z,100872.83
2023-05-19T02:02:59.259Z,100874.48
2023-05-19T02:05:29.668Z,100879.35
2023-05-19T02:08:10.879Z,100890.75
2023-05-19T02:10:38.004Z,100894.32
2023-05-19T02:13:05.906Z,100897.65
2023-05-19T02:15:38.929Z,100895.24
2023-05-19T02:18:06.031Z,100898.20
2023-05-19T02:20:33.399Z,100899.46
2023-05-19T02:23:00.917Z,100901.80
2023-05-19T02:25:27.933Z,100903.43
2023-05-19T02:27:54.922Z,100907.73
2023-05-19T02:30:21.946Z,100911.13
2023-05-19T02:32:49.162Z,100907.08
2023-05-19T02:35:16.349Z,100905.12
2023-05-19T02:37:43.716Z,100909.36
2023-05-19T02:40:11.199Z,100908.38
2023-05-19T02:42:38.402Z,100907.91
2023-05-19T02:45:05.875Z,100904.96
2023-05-19T02:47:34.741Z,100907.55
2023-05-19T02:50:04.254Z,100905.53
2023-05-19T02:52:31.868Z,100906.40
2023-05-19T02:54:58.997Z,100907.98
2023-05-19T02:57:27.135Z,100906.96
2023-05-19T02:59:54.094Z,100910.93
2023-05-19T03:02:21.160Z,100914.88
2023-05-19T03:04:48.319Z,100914.23
2023-05-19T03:07:16.627Z,100912.38
2023-05-19T03:09:43.686Z,100913.48
2023-05-19T03:12:10.895Z,100913.42
2023-05-19T03:14:38.837Z,100907.13
2023-05-19T03:17:08.306Z,100907.23
2023-05-19T03:19:35.635Z,100908.35
2023-05-19T03:22:02.822Z,100911.27
2023-05-19T03:24:30.099Z,100914.83
2023-05-19T03:26:57.244Z,100915.90
2023-05-19T03:29:24.247Z,100919.14
2023-05-19T03:31:52.339Z,100916.26
2023-05-19T03:34:19.502Z,100922.46
2023-05-19T03:36:46.606Z,100922.75
2023-05-19T03:39:15.492Z,100925.09
2023-05-19T03:41:43.009Z,100922.83
2023-05-19T03:44:10.051Z,100921.45
2023-05-19T03:46:37.372Z,100922.08
2023-05-19T03:49:20.652Z,100924.23
2023-05-19T03:52:06.524Z,100923.23
2023-05-19T03:54:39.822Z,100923.34
2023-05-19T03:57:06.841Z,100924.04
2023-05-19T03:59:34.028Z,100920.84
2023-05-19T04:02:01.002Z,100920.15
2023-05-19T04:04:28.737Z,100924.81
2023-05-19T04:06:55.848Z,100922.48
2023-05-19T04:09:24.315Z,100923.56
2023-05-19T04:11:51.359Z,100924.12
2023-05-19T04:14:19.754Z,100922.77
2023-05-19T04:16:46.907Z,100925.55
2023-05-19T04:19:14.009Z,100921.65
2023-05-19T04:21:41.259Z,100921.95
2023-05-19T04:24:08.435Z,100926.54
2023-05-19T04:26:36.212Z,100926.97
2023-05-19T04:29:04.776Z,100926.55
2023-05-19T04:31:34.570Z,100922.64
2023-05-19T04:34:02.329Z,100923.31
2023-05-19T04:36:29.487Z,100925.52
2023-05-19T04:39:02.576Z,100926.83
2023-05-19T04:41:29.995Z,100927.06
2023-05-19T04:43:57.725Z,100930.77
2023-05-19T04:46:26.260Z,100933.27
2023-05-19T04:48:57.299Z,100936.03
2023-05-19T04:51:30.288Z,100933.14
2023-05-19T04:53:58.576Z,100928.85
2023-05-19T04:56:27.568Z,100928.41
2023-05-19T04:58:55.532Z,100925.59
2023-05-19T05:01:26.366Z,100925.36
2023-05-19T05:03:55.558Z,100919.90
2023-05-19T05:06:23.224Z,100921.77
2023-05-19T05:08:51.169Z,100929.30
2023-05-19T05:11:18.775Z,100932.27
2023-05-19T05:13:46.925Z,100928.57
2023-05-19T05:16:14.748Z,100928.79
2023-05-19T05:18:44.366Z,100927.96
2023-05-19T05:21:12.432Z,100929.92
2023-05-19T05:23:40.826Z,100928.65
2023-05-19T05:26:13.878Z,100927.55
2023-05-19T05:28:41.778Z,100922.77
2023-05-19T05:31:09.005Z,100920.92
2023-05-19T05:33:37.316Z,100920.08
2023-05-19T05:36:04.868Z,100920.61
2023-05-19T05:38:31.971Z,100927.83
2023-05-19T05:40:59.407Z,100923.95
2023-05-19T05:43:26.477Z,100930.08
2023-05-19T05:45:58.921Z,100926.95
2023-05-19T05:48:26.627Z,100928.73
2023-05-19T05:50:54.787Z,100931.10
2023-05-19T05:53:25.086Z,100934.07
2023-05-19T05:55:53.822Z,100933.65
2023-05-19T05:58:22.488Z,100936.65
2023-05-19T06:00:51.664Z,100940.13
2023-05-19T06:03:22.221Z,100939.06
2023-05-19T06:05:49.847Z,100942.83
2023-05-19T06:08:18.087Z,100938.52
2023-05-19T06:10:47.213Z,100936.40
2023-05-19T06:13:18.127Z,100938.45
2023-05-19T06:15:46.666Z,100938.27
2023-05-19T06:18:34.377Z,100939.63
2023-05-19T06:21:01.927Z,100940.11
2023-05-19T06:23:30.811Z,100942.80
2023-05-19T06:25:57.945Z,100941.19
2023-05-19T06:28:25.111Z,100937.69
2023-05-19T06:30:52.345Z,100939.92
2023-05-19T06:33:40.288Z,100941.80
2023-05-19T06:36:10.310Z,100942.55
2023-05-19T06:38:38.180Z,100942.06
2023-05-19T06:41:05.842Z,100940.81
2023-05-19T06:43:33.309Z,100942.65
2023-05-19T06:46:03.659Z,100942.48
2023-05-19T06:48:32.562Z,100944.83
2023-05-19T06:51:00.559Z,100944.05
2023-05-19T06:53:28.259Z,100945.41
2023-05-19T06:56:00.012Z,100941.20
2023-05-19T06:58:31.483Z,100943.12
2023-05-19T07:00:59.117Z,100937.21
2023-05-19T07:03:28.802Z,100942.89
2023-05-19T07:05:56.488Z,100943.07
2023-05-19T07:08:23.830Z,100947.98
2023-05-19T07:10:51.184Z,100942.10
2023-05-19T07:13:18.685Z,100946.51
2023-05-19T07:15:46.546Z,100953.17
2023-05-19T07:18:20.109Z,100951.42
2023-05-19T07:20:47.526Z,100950.17
2023-05-19T07:23:17.158Z,100949.83
2023-05-19T07:25:46.501Z,100954.80
2023-05-19T07:28:13.700Z,100952.67
2023-05-19T07:30:41.130Z,100954.36
2023-05-19T07:33:08.814Z,100951.38
2023-05-19T07:35:38.597Z,100952.83
2023-05-19T07:38:07.628Z,100953.63
2023-05-19T07:40:35.051Z,100952.33
2023-05-19T07:43:02.896Z,100947.55
2023-05-19T07:45:30.055Z,100940.02
2023-05-19T07:47:57.314Z,100938.87
2023-05-19T07:50:24.614Z,100936.43
2023-05-19T07:52:51.890Z,100934.84
2023-05-19T07:55:19.525Z,100935.14
2023-05-19T07:57:46.797Z,100934.48
2023-05-19T08:00:14.369Z,100931.97
2023-05-19T08:02:42.218Z,100934.45
2023-05-19T08:05:09.981Z,100935.65
2023-05-19T08:07:37.340Z,100935.02
2023-05-19T08:10:05.928Z,100932.11
2023-05-19T08:12:33.469Z,100934.52
2023-05-19T08:15:05.411Z,100930.48
2023-05-19T08:17:33.043Z,100932.16
2023-05-19T08:20:03.672Z,100927.52
2023-05-19T08:22:33.074Z,100928.83
2023-05-19T08:25:05.066Z,100931.95
2023-05-19T08:27:32.782Z,100932.42
2023-05-19T08:30:00.273Z,100925.94
2023-05-19T08:32:27.811Z,100937.05
2023-05-19T08:34:57.129Z,100927.05
2023-05-19T08:37:24.794Z,100919.01
2023-05-19T08:39:52.161Z,100921.45
2023-05-19T08:42:19.490Z,100924.13
2023-05-19T08:44:46.894Z,100933.35
2023-05-19T08:47:15.481Z,100921.79
2023-05-19T08:49:46.271Z,100916.61
2023-05-19T08:52:25.545Z,100917.17
2023-05-19T08:55:01.293Z,100920.40
2023-05-19T08:57:29.381Z,100916.19
2023-05-19T08:59:56.984Z,100915.17
2023-05-19T09:02:24.628Z,100911.45
2023-05-19T09:04:52.239Z,100919.91
2023-05-19T09:07:19.816Z,100912.75
2023-05-19T09:09:47.142Z,100906.19
2023-05-19T09:12:14.618Z,100903.21
2023-05-19T09:14:43.033Z,100899.04
2023-05-19T09:17:10.267Z,100906.41
2023-05-19T09:19:38.765Z,100905.92
2023-05-19T09:22:06.662Z,100913.04
2023-05-19T09:24:34.341Z,100913.69
2023-05-19T09:27:02.407Z,100914.14
2023-05-19T09:29:29.600Z,100903.33
2023-05-19T09:32:01.123Z,100895.65
2023-05-19T09:34:28.512Z,100904.62
2023-05-19T09:36:55.632Z,100914.73
2023-05-19T09:39:23.111Z,100903.31
2023-05-19T09:41:58.604Z,100895.45
2023-05-19T09:44:30.577Z,100891.20
2023-05-19T09:47:00.449Z,100904.95
2023-05-19T09:49:31.533Z,100904.08
2023-05-19T09:51:59.565Z,100897.58
2023-05-19T09:54:28.626Z,100898.27
2023-05-19T09:56:59.654Z,100906.20
2023-05-19T09:59:29.771Z,100910.69
2023-05-19T10:02:01.785Z,100898.66
2023-05-19T10:04:30.834Z,100885.83
2023-05-19T10:07:00.827Z,100898.30
2023-05-19T10:09:28.569Z,100901.40
2023-05-19T10:11:56.122Z,100909.46
2023-05-19T10:14:29.804Z,100901.50
2023-05-19T10:17:00.241Z,100885.45
2023-05-19T10:19:28.306Z,100886.19
2023-05-19T10:21:56.179Z,100882.16
2023-05-19T10:24:23.323Z,100891.21
2023-05-19T10:27:04.144Z,100895.81
2023-05-19T10:29:32.153Z,100890.98
2023-05-19T10:32:00.007Z,100885.41
2023-05-19T10:34:50.529Z,100888.45
2023-05-19T10:37:20.854Z,100895.85
2023-05-19T10:39:48.515Z,100900.71
2023-05-19T10:42:15.811Z,100892.88
2023-05-19T10:44:46.197Z,100893.97
2023-05-19T10:47:13.465Z,100887.92
2023-05-19T10:49:40.842Z,100886.69
2023-05-19T10:52:23.471Z,100888.40
2023-05-19T10:54:51.645Z,100884.76
2023-05-19T10:57:18.798Z,100889.77
2023-05-19T10:59:46.161Z,100887.27
2023-05-19T11:02:32.961Z,100884.77
2023-05-19T11:05:19.708Z,100884.60
2023-05-19T11:08:02.566Z,100881.06
2023-05-19T11:10:30.007Z,100891.15
2023-05-19T11:15:28.445Z,100883.63
2023-05-19T11:17:55.698Z,100879.52
2023-05-19T11:20:22.951Z,100878.29
2023-05-19T11:23:07.174Z,100882.28
2023-05-19T11:25:44.570Z,100876.60
2023-05-19T11:28:14.767Z,100869.85
2023-05-19T11:30:42.443Z,100848.73
2023-05-19T11:33:09.835Z,100866.13
2023-05-19T11:35:37.788Z,100864.24
2023-05-19T11:38:05.767Z,100861.54
2023-05-19T11:40:33.160Z,100875.12
2023-05-19T11:43:02.150Z,100878.21
2023-05-19T11:45:30.145Z,100879.79
2023-05-19T11:48:02.557Z,100877.63
2023-05-19T11:50:31.459Z,100871.31
2023-05-19T11:52:59.826Z,100869.14
2023-05-19T11:55:27.250Z,100865.24
2023-05-19T11:58:05.865Z,100868.83
2023-05-19T12:00:38.114Z,100872.31
2023-05-19T12:03:05.839Z,100874.00
2023-05-19T12:05:36.665Z,100874.02
2023-05-19T12:08:06.593Z,100884.59
2023-05-19T12:10:36.715Z,100870.77
2023-05-19T12:13:03.901Z,100877.27
2023-05-19T12:15:31.681Z,100876.88
2023-05-19T12:17:59.636Z,100872.92
2023-05-19T12:20:27.458Z,100872.93
2023-05-19T12:22:57.772Z,100872.61
2023-05-19T12:25:25.018Z,100872.65
2023-05-19T12:27:56.897Z,100874.73
2023-05-19T12:30:26.465Z,100879.33
2023-05-19T12:32:54.131Z,100874.12
2023-05-19T12:35:23.509Z,100880.17
2023-05-19T12:37:50.900Z,100871.51
2023-05-19T12:40:18.087Z,100873.00
2023-05-19T12:42:45.556Z,100862.86
2023-05-19T12:45:12.878Z,100869.98
2023-05-19T12:47:40.074Z,100863.83
2023-05-19T12:50:11.007Z,100853.57
2023-05-19T12:52:47.835Z,100860.20
2023-05-19T12:55:16.839Z,100864.24
2023-05-19T12:57:44.603Z,100855.36
2023-05-19T13:00:11.882Z,100854.07
2023-05-19T13:02:55.002Z,100863.13
2023-05-19T13:05:22.990Z,100862.55
2023-05-19T13:08:09.104Z,100866.73
2023-05-19T13:10:37.076Z,100857.94
2023-05-19T13:13:04.309Z,100862.49
2023-05-19T13:15:34.702Z,100869.77
2023-05-19T13:18:02.153Z,100868.50
2023-05-19T13:20:29.449Z,100873.09
2023-05-19T13:22:57.267Z,100870.27
2023-05-19T13:25:24.636Z,100872.69
2023-05-19T13:27:52.039Z,100872.02
2023-05-19T13:30:19.261Z,100873.30
2023-05-19T13:32:46.856Z,100872.90
2023-05-19T13:35:14.395Z,100869.41
2023-05-19T13:37:42.009Z,100875.40
2023-05-19T13:40:09.736Z,100879.96
2023-05-19T13:42:36.907Z,100874.89
2023-05-19T13:45:04.370Z,100876.46
2023-05-19T13:47:31.673Z,100880.73
2023-05-19T13:49:58.891Z,100883.86
2023-05-19T13:52:27.505Z,100890.89
2023-05-19T13:54:56.977Z,100889.08
2023-05-19T13:57:24.294Z,100886.10
2023-05-19T14:00:01.851Z,100892.11
2023-05-19T14:02:39.695Z,100888.38
2023-05-19T14:05:07.664Z,100888.73
2023-05-19T14:07:35.487Z,100897.03
2023-05-19T14:10:03.138Z,100893.19
2023-05-19T14:12:43.150Z,100894.36
2023-05-19T14:15:18.129Z,100891.23
2023-05-19T14:17:45.350Z,100894.02
2023-05-19T14:20:12.706Z,100889.66
2023-05-19T14:22:39.919Z,100886.25
2023-05-19T14:25:07.493Z,100886.83
2023-05-19T14:27:34.749Z,100893.61
2023-05-19T14:30:01.898Z,100887.89
2023-05-19T14:32:30.430Z,100889.92
2023-05-19T14:34:57.908Z,100885.52
2023-05-19T14:37:29.035Z,100893.63
2023-05-19T14:39:57.232Z,100896.06
2023-05-19T14:42:24.545Z,100892.13
2023-05-19T14:44:51.724Z,100885.58
2023-05-19T14:47:18.940Z,100888.60
2023-05-19T14:49:46.129Z,100893.62
2023-05-19T14:52:13.381Z,100895.55
2023-05-19T14:54:40.667Z,100888.14
2023-05-19T14:57:08.394Z,100890.27
2023-05-19T14:59:38.071Z,100892.84
2023-05-19T15:02:05.693Z,100887.11
2023-05-19T15:04:32.855Z,100891.72
2023-05-19T15:07:09.666Z,100893.12
2023-05-19T15:09:37.898Z,100892.06
2023-05-19T15:12:05.214Z,100890.11
2023-05-19T15:14:32.445Z,100886.09
2023-05-19T15:16:59.625Z,100884.88
2023-05-19T15:19:27.099Z,100888.23
2023-05-19T15:21:54.517Z,100890.71
2023-05-19T15:24:21.828Z,100895.34
2023-05-19T15:26:48.925Z,100891.41
2023-05-19T15:29:16.152Z,100897.76
2023-05-19T15:31:43.678Z,100902.48
2023-05-19T15:34:10.924Z,100898.63
2023-05-19T15:36:38.107Z,100905.15
2023-05-19T15:39:06.296Z,100902.20
2023-05-19T15:41:33.395Z,100902.66
2023-05-19T15:44:00.709Z,100915.49
2023-05-19T15:46:28.415Z,100912.09
2023-05-19T15:48:55.703Z,100922.81
2023-05-19T15:51:22.818Z,100923.33
2023-05-19T15:53:50.013Z,100927.65
2023-05-19T15:56:17.247Z,100924.86
2023-05-19T15:58:44.481Z,100925.52
2023-05-19T16:01:11.988Z,100927.97
2023-05-19T16:03:39.256Z,100930.11
2023-05-19T16:06:06.634Z,100934.06
2023-05-19T16:08:33.818Z,100938.22
2023-05-19T16:11:01.321Z,100939.95
2023-05-19T16:13:28.556Z,100939.23
2023-05-19T16:15:56.311Z,100944.30
2023-05-19T16:18:23.951Z,100940.59
2023-05-19T16:20:51.483Z,100943.02
2023-05-19T16:23:18.639Z,100945.17
2023-05-19T16:25:45.907Z,100943.59
2023-05-19T16:28:13.119Z,100945.80
2023-05-19T16:30:40.622Z,100951.12
2023-05-19T16:33:15.032Z,100952.41
2023-05-19T16:35:42.798Z,100957.68
2023-05-19T16:38:10.022Z,100959.14
2023-05-19T16:40:37.364Z,100963.58
2023-05-19T16:43:04.502Z,100962.86
2023-05-19T16:45:31.775Z,100962.26
2023-05-19T16:47:58.991Z,100963.20
2023-05-19T16:50:26.329Z,100964.92
2023-05-19T16:52:53.437Z,100964.82
2023-05-19T16:55:20.802Z,100962.46
2023-05-19T16:57:48.040Z,100964.66
2023-05-19T17:00:15.761Z,100964.59
2023-05-19T17:02:43.125Z,100964.05
2023-05-19T17:05:10.724Z,100963.98
2023-05-19T17:07:37.903Z,100964.70
2023-05-19T17:10:05.398Z,100966.23
2023-05-19T17:12:32.659Z,100971.60
2023-05-19T17:14:59.812Z,100973.86
2023-05-19T17:17:27.014Z,100972.23
2023-05-19T17:19:54.610Z,100972.23
2023-05-19T17:22:21.755Z,100975.16
2023-05-19T17:24:48.875Z,100972.63
2023-05-19T17:27:16.404Z,100975.54
2023-05-19T17:29:43.605Z,100978.70
2023-05-19T17:32:10.802Z,100978.27
2023-05-19T17:34:39.386Z,100983.38
2023-05-19T17:37:06.628Z,100984.02
2023-05-19T17:39:34.172Z,100984.05
2023-05-19T17:42:01.365Z,100990.58
2023-05-19T17:44:28.579Z,100990.55
2023-05-19T17:46:55.871Z,100988.48
2023-05-19T17:49:24.634Z,100991.38
2023-05-19T17:51:51.968Z,100994.09
2023-05-19T17:54:19.387Z,100994.14
2023-05-19T17:56:46.722Z,100996.52
2023-05-19T17:59:13.989Z,101002.41
2023-05-19T18:01:41.459Z,101004.15
2023-05-19T18:04:09.170Z,101006.84
2023-05-19T18:06:39.596Z,101002.54
2023-05-19T18:09:09.196Z,101007.77
2023-05-19T18:11:36.687Z,101010.32
2023-05-19T18:14:03.899Z,101009.72
2023-05-19T18:16:35.110Z,101010.33
2023-05-19T18:19:03.459Z,101010.11
2023-05-19T18:21:31.586Z,101010.80
2023-05-19T18:24:00.758Z,101013.19
2023-05-19T18:26:28.004Z,101009.53
2023-05-19T18:28:54.970Z,101006.79
2023-05-19T18:31:22.168Z,101009.06
2023-05-19T18:33:49.290Z,101008.20
2023-05-19T18:36:16.896Z,101013.44
2023-05-19T18:38:44.000Z,101008.80
2023-05-19T18:41:11.272Z,101010.61
2023-05-19T18:43:39.314Z,101011.59
2023-05-19T18:46:06.928Z,101009.13
2023-05-19T18:48:34.116Z,101013.93
2023-05-19T18:51:03.645Z,101014.65
2023-05-19T18:53:34.868Z,101017.27
2023-05-19T18:56:03.809Z,101018.25
2023-05-19T18:58:31.004Z,101019.81
2023-05-19T19:00:58.357Z,101019.61
2023-05-19T19:03:25.799Z,101020.19
2023-05-19T19:05:59.196Z,101015.13
2023-05-19T19:08:26.400Z,101018.08
2023-05-19T19:10:59.322Z,101022.34
2023-05-19T19:13:26.912Z,101021.89
2023-05-19T19:15:54.063Z,101023.53
2023-05-19T19:18:21.222Z,101021.77
2023-05-19T19:20:48.453Z,101020.54
2023-05-19T19:23:15.665Z,101020.55
2023-05-19T19:25:42.779Z,101017.41
2023-05-19T19:28:10.692Z,101018.04
2023-05-19T19:30:38.035Z,101021.44
2023-05-19T19:33:06.654Z,101019.35
2023-05-19T19:35:34.242Z,101018.08
2023-05-19T19:38:01.527Z,101016.91
2023-05-19T19:40:29.491Z,101012.59
2023-05-19T19:42:56.797Z,101019.50
2023-05-19T19:45:24.077Z,101015.25
2023-05-19T19:47:51.996Z,101017.30
2023-05-19T19:50:19.282Z,101018.02
2023-05-19T19:52:46.466Z,101022.68
2023-05-19T19:55:13.672Z,101021.66
2023-05-19T19:57:40.952Z,101025.71
2023-05-19T20:00:08.621Z,101027.15
2023-05-19T20:02:40.946Z,101031.27
2023-05-19T20:05:12.891Z,101032.09
2023-05-19T20:07:40.141Z,101029.20
2023-05-19T20:10:07.858Z,101029.54
2023-05-19T20:12:34.996Z,101031.66
2023-05-19T20:15:02.138Z,101029.00
2023-05-19T20:17:29.323Z,101028.75
2023-05-19T20:19:56.797Z,101029.42
2023-05-19T20:22:23.941Z,101029.85
2023-05-19T20:24:51.164Z,101030.35
2023-05-19T20:27:18.471Z,101034.39
2023-05-19T20:29:47.215Z,101033.42
2023-05-19T20:32:14.361Z,101039.97
2023-05-19T20:34:41.648Z,101041.73
2023-05-19T20:37:08.792Z,101043.52
2023-05-19T20:39:36.060Z,101044.89
2023-05-19T20:42:03.290Z,101043.15
2023-05-19T20:44:30.597Z,101043.42
2023-05-19T20:46:58.075Z,101045.06
2023-05-19T20:49:25.273Z,101041.16
2023-05-19T20:51:52.617Z,101040.50
2023-05-19T20:54:20.431Z,101042.63
2023-05-19T20:56:47.667Z,101041.35
2023-05-19T20:59:14.771Z,101043.83
2023-05-19T21:01:42.091Z,101045.27
2023-05-19T21:04:09.309Z,101045.05
2023-05-19T21:06:36.558Z,101046.85
2023-05-19T21:09:06.866Z,101054.23
2023-05-19T21:11:34.344Z,101046.95
2023-05-19T21:14:04.284Z,101052.60
2023-05-19T21:16:32.207Z,101051.04
2023-05-19T21:18:59.387Z,101052.10
2023-05-19T21:21:26.386Z,101052.89
2023-05-19T21:23:53.504Z,101049.45
2023-05-19T21:26:21.839Z,101044.96
2023-05-19T21:28:48.934Z,101046.70
2023-05-19T21:31:16.056Z,101048.98
2023-05-19T21:33:43.252Z,101046.64
2023-05-19T21:36:10.414Z,101045.30
2023-05-19T21:38:37.832Z,101046.31
2023-05-19T21:41:04.848Z,101048.65
2023-05-19T21:43:31.859Z,101050.63
2023-05-19T21:45:58.800Z,101049.33
2023-05-19T21:48:26.201Z,101048.95
2023-05-19T21:50:54.576Z,101055.60
2023-05-19T21:53:21.646Z,101059.77
2023-05-19T21:55:48.669Z,101058.77
2023-05-19T21:58:15.992Z,101065.43
2023-05-19T22:00:43.643Z,101064.98
2023-05-19T22:03:10.785Z,101066.15
2023-05-19T22:05:38.461Z,101069.80
2023-05-19T22:08:05.548Z,101069.25
2023-05-19T22:10:32.774Z,101071.25
2023-05-19T22:13:00.209Z,101068.61
2023-05-19T22:15:27.474Z,101071.34
2023-05-19T22:17:54.702Z,101070.98
2023-05-19T22:20:21.889Z,101070.17
2023-05-19T22:22:49.026Z,101069.27
2023-05-19T22:25:16.723Z,101070.85
2023-05-19T22:27:45.420Z,101070.39
2023-05-19T22:30:12.593Z,101067.32
2023-05-19T22:32:39.850Z,101069.57
2023-05-19T22:35:08.517Z,101068.41
2023-05-19T22:37:35.742Z,101067.58
2023-05-19T22:40:02.923Z,101065.80
2023-05-19T22:42:30.035Z,101064.13
2023-05-19T22:44:57.136Z,101063.59
2023-05-19T22:47:24.287Z,101065.55
2023-05-19T22:49:51.601Z,101064.16
2023-05-19T22:52:18.749Z,101076.92
2023-05-19T22:54:45.933Z,101075.35
2023-05-19T22:57:13.137Z,101075.58
2023-05-19T22:59:41.285Z,101076.73
2023-05-19T23:02:08.565Z,101073.95
2023-05-19T23:04:35.881Z,101072.67
2023-05-19T23:07:03.135Z,101072.52
2023-05-19T23:09:30.771Z,101075.54
2023-05-19T23:11:57.932Z,101077.53
2023-05-19T23:14:26.176Z,101083.73
2023-05-19T23:16:53.324Z,101083.48
2023-05-19T23:19:23.636Z,101084.29
2023-05-19T23:21:51.058Z,101083.42
2023-05-19T23:24:18.125Z,101084.75
2023-05-19T23:26:45.294Z,101081.13
2023-05-19T23:29:13.278Z,101077.45
2023-05-19T23:31:41.248Z,101078.05
2023-05-19T23:34:08.428Z,101072.93
2023-05-19T23:36:35.582Z,101078.39
2023-05-19T23:39:02.902Z,101083.17
2023-05-19T23:41:30.349Z,101081.63
2023-05-19T23:43:57.443Z,101080.92
2023-05-19T23:46:24.718Z,101081.96
2023-05-19T23:48:51.900Z,101081.41
2023-05-19T23:51:19.465Z,101080.17
2023-05-19T23:53:47.126Z,101081.33
2023-05-19T23:56:14.334Z,101083.10
2023-05-19T23:58:41.537Z,101084.13
